Time;durP1;ratioP1;P1;durP2;ratioP2;P2;SDS_P1;SDS_P2;PMS_P1;PMS_P2;Temp;Humidity;BMP_temperature;BMP_pressure;BME280_temperature;BME280_humidity;BME280_pressure;Samples;Min_cycle;Max_cycle;Signal;HPM_P1;HPM_P2
2023/01/20 00:02:16;;;;;;;7.30;2.88;;;16.00;46.60;;;;;;5095995;27;45449;-68
2023/01/20 00:04:43;;;;;;;4.18;2.42;;;16.00;46.70;;;;;;5104132;27;45244;-68
2023/01/20 00:07:09;;;;;;;5.53;2.50;;;16.00;46.70;;;;;;5102798;27;47553;-68
2023/01/20 00:09:36;;;;;;;5.30;2.45;;;15.90;46.70;;;;;;5103713;27;45395;-68
2023/01/20 00:12:03;;;;;;;4.70;2.72;;;15.90;46.60;;;;;;5103313;27;45331;-68
2023/01/20 00:14:32;;;;;;;6.07;2.80;;;15.90;46.70;;;;;;5103497;27;45493;-68
2023/01/20 00:16:59;;;;;;;5.30;2.75;;;15.90;46.70;;;;;;5102762;27;45393;-68
2023/01/20 00:19:26;;;;;;;5.80;2.92;;;15.90;46.80;;;;;;5097494;27;45307;-67
2023/01/20 00:21:53;;;;;;;7.03;3.17;;;15.90;46.80;;;;;;5103386;27;45433;-68
2023/01/20 00:24:19;;;;;;;8.80;3.22;;;15.90;46.80;;;;;;5103229;27;45489;-68
2023/01/20 00:26:46;;;;;;;9.57;3.17;;;15.90;46.80;;;;;;5102039;27;48395;-68
2023/01/20 00:29:13;;;;;;;5.22;2.78;;;15.90;46.70;;;;;;5103176;27;45354;-68
2023/01/20 00:31:41;;;;;;;7.75;3.08;;;15.90;46.60;;;;;;5103012;27;45316;-68
2023/01/20 00:34:10;;;;;;;5.07;2.67;;;16.00;46.80;;;;;;5102943;27;45442;-68
2023/01/20 00:36:37;;;;;;;6.30;3.00;;;16.00;46.90;;;;;;5096014;27;45531;-68
2023/01/20 00:39:04;;;;;;;7.95;2.78;;;16.00;46.80;;;;;;5102628;27;45992;-68
2023/01/20 00:41:31;;;;;;;4.38;3.00;;;16.00;46.70;;;;;;5102694;27;45409;-68
2023/01/20 00:43:58;;;;;;;6.55;2.97;;;16.00;46.70;;;;;;5098082;27;45591;-68
2023/01/20 00:46:25;;;;;;;5.82;2.80;;;16.00;46.80;;;;;;5094090;27;45285;-68
2023/01/20 00:48:53;;;;;;;7.63;3.28;;;16.00;46.70;;;;;;5097853;27;45356;-68
2023/01/20 00:51:20;;;;;;;5.57;2.97;;;16.00;46.60;;;;;;5102901;27;45444;-68
2023/01/20 00:53:46;;;;;;;6.00;2.97;;;16.00;46.70;;;;;;5099845;27;45428;-68
2023/01/20 00:56:13;;;;;;;5.55;2.90;;;16.00;46.80;;;;;;5102457;27;45248;-68
2023/01/20 00:58:42;;;;;;;5.68;3.10;;;15.90;46.70;;;;;;5102823;27;45243;-68
2023/01/20 01:01:09;;;;;;;4.70;3.05;;;15.90;47.00;;;;;;5103308;27;45265;-68
2023/01/20 01:03:36;;;;;;;6.50;3.45;;;15.90;48.40;;;;;;5102166;27;45368;-68
2023/01/20 01:06:09;;;;;;;5.32;3.00;;;15.90;46.90;;;;;;5102081;27;45363;-68
2023/01/20 01:08:36;;;;;;;7.60;3.42;;;15.90;46.50;;;;;;5102891;27;45285;-68
2023/01/20 01:11:04;;;;;;;7.72;3.35;;;15.80;46.10;;;;;;5096390;27;45454;-69
2023/01/20 01:13:31;;;;;;;7.28;3.55;;;15.80;46.00;;;;;;5102527;27;45433;-68
2023/01/20 01:15:58;;;;;;;5.50;3.70;;;15.80;45.90;;;;;;5101422;27;46410;-68
2023/01/20 01:18:25;;;;;;;7.50;3.80;;;15.80;45.80;;;;;;5102755;27;45480;-69
2023/01/20 01:20:51;;;;;;;8.80;3.83;;;15.70;45.50;;;;;;5106200;27;45356;-68
2023/01/20 01:23:20;;;;;;;5.57;3.83;;;15.70;45.40;;;;;;5106388;27;45493;-68
2023/01/20 01:25:46;;;;;;;6.28;3.40;;;15.80;45.50;;;;;;5105801;27;46083;-68
2023/01/20 01:28:13;;;;;;;6.45;3.67;;;15.80;45.80;;;;;;5099914;27;45345;-68
2023/01/20 01:30:40;;;;;;;7.60;3.63;;;15.80;45.80;;;;;;5099486;27;45430;-68
2023/01/20 01:33:07;;;;;;;7.40;3.58;;;15.90;45.90;;;;;;5106323;27;45315;-68
2023/01/20 01:35:33;;;;;;;7.03;3.88;;;15.90;46.00;;;;;;5104987;27;47542;-68
2023/01/20 01:38:00;;;;;;;7.35;4.28;;;15.90;45.90;;;;;;5105723;27;45218;-68
2023/01/20 01:40:28;;;;;;;6.72;3.78;;;15.90;45.90;;;;;;5106005;27;45498;-69
2023/01/20 01:42:55;;;;;;;6.63;3.33;;;15.90;46.10;;;;;;5105296;27;45310;-68
2023/01/20 01:45:25;;;;;;;6.78;3.45;;;15.90;46.10;;;;;;5099395;27;46874;-68
2023/01/20 01:47:57;;;;;;;6.20;3.65;;;15.90;46.00;;;;;;5105963;27;45336;-68
2023/01/20 01:50:31;;;;;;;5.78;3.22;;;15.90;46.00;;;;;;5103347;27;45282;-68
2023/01/20 01:52:59;;;;;;;5.05;2.92;;;15.90;46.10;;;;;;5102160;27;45432;-68
2023/01/20 01:55:31;;;;;;;5.05;3.40;;;15.90;46.20;;;;;;5099525;27;45391;-68
2023/01/20 01:57:59;;;;;;;7.78;3.95;;;15.90;46.30;;;;;;5104751;27;45520;-68
2023/01/20 02:00:26;;;;;;;6.80;3.47;;;15.90;46.40;;;;;;5100986;27;45269;-68
2023/01/20 02:02:55;;;;;;;4.78;3.33;;;15.90;46.50;;;;;;5102243;27;45270;-68
2023/01/20 02:05:22;;;;;;;6.72;3.60;;;15.90;46.60;;;;;;5103512;27;48279;-68
2023/01/20 02:07:50;;;;;;;4.65;3.08;;;15.90;46.60;;;;;;5105005;27;45469;-69
2023/01/20 02:10:17;;;;;;;6.80;3.67;;;15.90;46.60;;;;;;5105358;27;45340;-68
2023/01/20 02:12:50;;;;;;;5.40;2.83;;;15.90;46.90;;;;;;5105484;27;45409;-69
2023/01/20 02:15:21;;;;;;;5.20;3.50;;;15.90;46.80;;;;;;5104476;27;47190;-68
2023/01/20 02:18:00;;;;;;;6.40;3.40;;;15.90;46.70;;;;;;5098917;27;45274;-68
2023/01/20 02:20:42;;;;;;;5.70;3.60;;;15.90;46.80;;;;;;5105174;27;45213;-69
2023/01/20 02:23:21;;;;;;;5.40;3.50;;;15.90;46.70;;;;;;5097544;27;45292;-68
2023/01/20 02:26:06;;;;;;;5.93;4.00;;;15.90;46.80;;;;;;5104296;27;45444;-68
2023/01/20 02:29:22;;;;;;;6.93;3.90;;;15.90;46.70;;;;;;5104703;27;45836;-69
2023/01/20 02:32:29;;;;;;;9.00;3.95;;;16.00;46.90;;;;;;5103169;27;45427;-69
2023/01/20 02:35:00;;;;;;;7.53;3.88;;;16.00;46.90;;;;;;5028509;28;45598;-69
2023/01/20 02:37:30;;;;;;;5.78;3.83;;;16.00;46.90;;;;;;5021638;28;46507;-68
2023/01/20 02:40:12;;;;;;;8.63;4.57;;;16.00;46.90;;;;;;5065827;27;45399;-68
2023/01/20 02:42:45;;;;;;;6.93;4.25;;;16.00;46.80;;;;;;5101586;27;45390;-69
2023/01/20 02:45:17;;;;;;;7.32;4.25;;;16.00;47.10;;;;;;5104749;27;45513;-69
2023/01/20 02:47:51;;;;;;;6.25;4.28;;;16.00;47.00;;;;;;5104854;27;46293;-68
2023/01/20 02:50:24;;;;;;;7.40;4.68;;;15.90;47.10;;;;;;5102041;27;45301;-68
2023/01/20 02:52:54;;;;;;;5.70;3.97;;;15.90;47.30;;;;;;5097558;27;45287;-68
2023/01/20 02:55:27;;;;;;;9.00;4.45;;;15.90;47.30;;;;;;5103344;27;45550;-68
2023/01/20 02:57:58;;;;;;;6.05;3.78;;;15.90;47.30;;;;;;5103928;27;47159;-68
2023/01/20 03:00:31;;;;;;;6.90;4.15;;;15.90;47.40;;;;;;5104378;27;45357;-68
2023/01/20 03:03:01;;;;;;;7.75;4.20;;;15.90;47.40;;;;;;5103171;27;45418;-68
2023/01/20 03:05:33;;;;;;;7.82;4.35;;;15.90;47.40;;;;;;5103766;27;45357;-69
2023/01/20 03:08:02;;;;;;;6.88;4.25;;;15.90;47.50;;;;;;5102832;27;45482;-68
2023/01/20 03:10:32;;;;;;;6.80;4.28;;;15.90;47.60;;;;;;5099270;27;45228;-68
2023/01/20 03:13:05;;;;;;;7.45;4.70;;;15.90;47.40;;;;;;5104033;27;45446;-68
2023/01/20 03:15:40;;;;;;;7.75;4.53;;;15.90;47.30;;;;;;5104259;27;45421;-69
2023/01/20 03:18:08;;;;;;;7.15;4.18;;;16.00;47.30;;;;;;5096680;27;46528;-68
2023/01/20 03:20:36;;;;;;;7.05;4.32;;;16.00;47.10;;;;;;5104123;27;45294;-68
2023/01/20 03:23:39;;;;;;;6.45;3.85;;;16.00;47.10;;;;;;5103917;27;45244;-68
2023/01/20 03:26:08;;;;;;;4.80;3.50;;;16.00;47.10;;;;;;5088471;27;45328;-68
2023/01/20 03:28:35;;;;;;;6.75;4.18;;;16.00;47.00;;;;;;5104345;27;45322;-68
2023/01/20 03:31:10;;;;;;;6.63;4.03;;;16.00;47.00;;;;;;5098544;27;45511;-68
2023/01/20 03:33:39;;;;;;;7.05;4.30;;;16.00;47.20;;;;;;5095395;27;45384;-68
2023/01/20 03:36:06;;;;;;;5.53;3.60;;;16.00;47.20;;;;;;5099500;27;45446;-68
2023/01/20 03:38:33;;;;;;;6.32;4.13;;;16.00;47.10;;;;;;5101662;27;46596;-68
2023/01/20 03:41:05;;;;;;;5.78;3.97;;;16.00;47.00;;;;;;5102773;27;45370;-68
2023/01/20 03:43:40;;;;;;;5.90;3.78;;;16.00;46.90;;;;;;5096842;27;45392;-68
2023/01/20 03:46:15;;;;;;;7.50;4.00;;;16.00;46.90;;;;;;5095958;27;45425;-68
2023/01/20 03:48:50;;;;;;;6.50;3.92;;;16.00;47.00;;;;;;5103314;27;46291;-68
2023/01/20 03:51:24;;;;;;;4.85;3.50;;;15.90;46.80;;;;;;5097204;27;45443;-68
2023/01/20 03:53:56;;;;;;;5.45;3.60;;;15.90;47.00;;;;;;5101780;27;45377;-68
2023/01/20 03:56:29;;;;;;;5.20;3.55;;;15.90;47.00;;;;;;5101302;27;45559;-68
2023/01/20 03:58:59;;;;;;;6.60;4.22;;;15.90;47.10;;;;;;5101577;27;48019;-68
2023/01/20 04:01:34;;;;;;;5.72;3.38;;;15.90;47.20;;;;;;5099756;27;45363;-69
2023/01/20 04:04:05;;;;;;;7.85;3.95;;;15.90;47.40;;;;;;5102932;27;45511;-68
2023/01/20 04:06:34;;;;;;;6.82;3.58;;;15.90;47.40;;;;;;5100808;27;45507;-68
2023/01/20 04:09:05;;;;;;;7.13;3.63;;;15.90;47.20;;;;;;5097500;27;46439;-69
2023/01/20 04:11:31;;;;;;;5.10;3.67;;;15.90;47.00;;;;;;5091211;27;45245;-68
2023/01/20 04:13:58;;;;;;;5.88;3.70;;;16.00;47.10;;;;;;5096921;27;45479;-68
2023/01/20 04:16:26;;;;;;;6.55;3.78;;;16.00;47.20;;;;;;5102060;27;45249;-69
2023/01/20 04:18:53;;;;;;;5.65;3.60;;;15.90;46.60;;;;;;5098422;27;47638;-68
2023/01/20 04:21:29;;;;;;;6.85;3.90;;;15.90;46.60;;;;;;5095899;27;45356;-68
2023/01/20 04:24:00;;;;;;;4.82;3.38;;;15.90;46.20;;;;;;5100330;27;45234;-69
2023/01/20 04:26:26;;;;;;;6.85;3.92;;;15.90;46.10;;;;;;5101062;27;45431;-68
2023/01/20 04:28:53;;;;;;;7.43;3.70;;;15.90;45.90;;;;;;5103154;27;45475;-69
2023/01/20 04:31:20;;;;;;;6.32;3.88;;;15.80;45.50;;;;;;5103384;27;45781;-69
2023/01/20 04:33:47;;;;;;;6.15;4.03;;;15.80;45.10;;;;;;5101132;27;45363;-68
2023/01/20 04:36:13;;;;;;;9.90;3.72;;;15.80;44.80;;;;;;5094704;27;45609;-68
2023/01/20 04:38:42;;;;;;;7.82;4.28;;;15.80;44.70;;;;;;5099844;27;45280;-68
2023/01/20 04:41:11;;;;;;;6.28;3.78;;;15.80;44.70;;;;;;5093913;27;45339;-68
2023/01/20 04:43:38;;;;;;;7.15;4.50;;;15.80;44.70;;;;;;5098370;27;45466;-68
2023/01/20 04:46:05;;;;;;;8.48;4.07;;;15.80;44.50;;;;;;5090274;27;45521;-68
2023/01/20 04:48:32;;;;;;;7.53;4.45;;;15.70;44.50;;;;;;5101895;27;47405;-69
2023/01/20 04:50:59;;;;;;;6.32;4.25;;;15.70;44.40;;;;;;5096047;27;45432;-68
2023/01/20 04:53:25;;;;;;;6.00;3.80;;;15.70;44.40;;;;;;5101791;27;45395;-68
2023/01/20 04:55:53;;;;;;;7.72;4.50;;;15.70;44.30;;;;;;5101742;27;45367;-69
2023/01/20 04:58:20;;;;;;;6.20;4.47;;;15.70;44.20;;;;;;5103070;27;47009;-68
2023/01/20 05:00:47;;;;;;;5.95;3.80;;;15.70;44.30;;;;;;5102245;27;45293;-68
2023/01/20 05:03:14;;;;;;;7.22;3.45;;;15.70;45.40;;;;;;5101681;27;45361;-69
2023/01/20 05:05:41;;;;;;;7.90;4.05;;;15.70;44.40;;;;;;5101484;27;45418;-68
2023/01/20 05:08:07;;;;;;;5.85;3.38;;;15.70;44.50;;;;;;5101376;27;46246;-68
2023/01/20 05:10:35;;;;;;;5.40;3.50;;;15.70;44.50;;;;;;5099849;27;45312;-69
2023/01/20 05:13:03;;;;;;;5.88;3.72;;;15.70;44.60;;;;;;5096610;27;45606;-68
2023/01/20 05:15:30;;;;;;;6.60;3.78;;;15.80;47.30;;;;;;5101948;27;45561;-68
2023/01/20 05:17:56;;;;;;;5.05;3.28;;;15.80;46.10;;;;;;5100141;27;45436;-68
2023/01/20 05:20:23;;;;;;;5.78;3.72;;;15.70;45.60;;;;;;5088609;27;45256;-68
2023/01/20 05:22:50;;;;;;;5.60;3.40;;;15.70;45.40;;;;;;5095396;27;45371;-68
2023/01/20 05:25:17;;;;;;;6.03;3.58;;;15.70;45.10;;;;;;5092785;27;45530;-68
2023/01/20 05:27:44;;;;;;;5.97;3.65;;;15.70;46.10;;;;;;5094559;27;45631;-68
2023/01/20 05:30:13;;;;;;;6.13;3.60;;;15.70;44.50;;;;;;5102254;27;45563;-68
2023/01/20 05:32:39;;;;;;;5.03;3.53;;;15.70;44.60;;;;;;5101837;27;45368;-68
2023/01/20 05:35:07;;;;;;;6.55;3.38;;;15.70;44.40;;;;;;5102122;27;45610;-68
2023/01/20 05:37:34;;;;;;;7.00;4.15;;;15.70;44.40;;;;;;5102520;27;46651;-68
2023/01/20 05:40:01;;;;;;;6.18;3.78;;;15.70;44.40;;;;;;5097092;27;45394;-69
2023/01/20 05:42:28;;;;;;;4.63;3.08;;;15.70;44.20;;;;;;5094392;27;45383;-68
2023/01/20 05:44:54;;;;;;;5.13;3.20;;;15.70;44.10;;;;;;5101987;27;45502;-68
2023/01/20 05:47:22;;;;;;;6.72;3.38;;;15.60;44.20;;;;;;5101509;27;45427;-68
2023/01/20 05:49:49;;;;;;;5.90;3.30;;;15.60;44.00;;;;;;5100469;27;45527;-69
2023/01/20 05:52:16;;;;;;;6.63;3.38;;;15.60;44.00;;;;;;5102133;27;45393;-68
2023/01/20 05:54:43;;;;;;;5.07;3.17;;;15.60;44.00;;;;;;5101758;27;45498;-69
2023/01/20 05:57:09;;;;;;;5.53;3.20;;;15.60;43.70;;;;;;5101492;27;47577;-69
2023/01/20 05:59:36;;;;;;;5.43;3.17;;;15.70;44.00;;;;;;5101210;27;45337;-68
2023/01/20 06:02:03;;;;;;;3.80;2.85;;;15.70;44.00;;;;;;5099428;27;45300;-69
2023/01/20 06:04:31;;;;;;;5.10;3.22;;;15.70;43.90;;;;;;5096168;27;45240;-67
2023/01/20 06:06:58;;;;;;;5.38;3.00;;;15.70;44.00;;;;;;5088040;27;48035;-68
2023/01/20 06:09:25;;;;;;;4.65;3.03;;;15.70;43.60;;;;;;5097891;27;45451;-68
2023/01/20 06:11:51;;;;;;;6.47;3.58;;;15.70;43.60;;;;;;5098923;27;45442;-68
2023/01/20 06:14:18;;;;;;;5.47;3.40;;;15.70;43.70;;;;;;5098598;27;45415;-68
2023/01/20 06:16:45;;;;;;;5.22;2.95;;;15.80;43.60;;;;;;5093227;27;45507;-68
2023/01/20 06:19:12;;;;;;;5.10;3.55;;;15.80;43.50;;;;;;5104552;27;45286;-68
2023/01/20 06:21:40;;;;;;;5.13;3.10;;;15.80;43.20;;;;;;5095682;27;45392;-68
2023/01/20 06:24:07;;;;;;;6.05;3.30;;;15.70;43.10;;;;;;5101490;27;45322;-68
2023/01/20 06:26:34;;;;;;;6.90;3.35;;;15.70;43.30;;;;;;5104299;27;46605;-67
2023/01/20 06:29:01;;;;;;;5.07;3.15;;;15.70;43.40;;;;;;5104850;27;45281;-68
2023/01/20 06:31:28;;;;;;;5.88;3.75;;;15.70;43.50;;;;;;5101241;27;45205;-68
2023/01/20 06:33:55;;;;;;;7.55;3.70;;;15.70;43.50;;;;;;5098540;27;45557;-68
2023/01/20 06:36:22;;;;;;;6.57;3.65;;;15.60;43.50;;;;;;5104635;27;45401;-68
2023/01/20 06:38:51;;;;;;;5.82;3.63;;;15.60;43.50;;;;;;5104737;27;45554;-68
2023/01/20 06:41:19;;;;;;;6.32;4.03;;;15.60;43.50;;;;;;5104481;27;45384;-68
2023/01/20 06:43:46;;;;;;;6.25;3.60;;;15.60;43.30;;;;;;5105423;27;45305;-68
2023/01/20 06:46:15;;;;;;;6.75;3.88;;;15.60;43.30;;;;;;5095634;27;45565;-69
2023/01/20 06:48:43;;;;;;;7.85;3.92;;;15.60;43.40;;;;;;5095385;27;45542;-68
2023/01/20 06:51:12;;;;;;;5.80;3.55;;;15.60;43.30;;;;;;5090024;27;45385;-68
2023/01/20 06:53:39;;;;;;;7.82;4.00;;;15.60;43.40;;;;;;5088404;27;45467;-68
2023/01/20 06:56:09;;;;;;;4.95;3.35;;;15.60;43.30;;;;;;5091591;27;47142;-68
2023/01/20 06:58:36;;;;;;;7.20;3.92;;;15.70;43.40;;;;;;5093463;27;45551;-68
2023/01/20 07:01:08;;;;;;;5.38;3.28;;;15.70;43.30;;;;;;5094390;27;45465;-69
2023/01/20 07:03:35;;;;;;;5.40;3.67;;;15.70;43.20;;;;;;5100967;27;45332;-68
2023/01/20 07:06:04;;;;;;;5.50;3.72;;;15.70;43.20;;;;;;5098549;27;48463;-68
2023/01/20 07:08:31;;;;;;;6.32;3.72;;;15.70;43.30;;;;;;5108664;27;45302;-68
2023/01/20 07:10:58;;;;;;;6.55;3.63;;;15.70;43.10;;;;;;5108435;27;45348;-68
2023/01/20 07:13:26;;;;;;;5.80;3.70;;;15.70;43.10;;;;;;5099649;27;45285;-69
2023/01/20 07:15:53;;;;;;;5.00;3.47;;;15.70;43.10;;;;;;5098485;27;46556;-68
2023/01/20 07:18:20;;;;;;;8.18;3.80;;;15.70;43.70;;;;;;5102676;27;45382;-69
2023/01/20 07:20:47;;;;;;;5.72;3.60;;;15.70;44.50;;;;;;5102310;27;45259;-68
2023/01/20 07:23:13;;;;;;;6.90;3.90;;;15.70;44.30;;;;;;5101604;27;45276;-68
2023/01/20 07:25:40;;;;;;;6.80;4.10;;;15.70;44.00;;;;;;5094733;27;47507;-68
2023/01/20 07:28:07;;;;;;;4.80;3.50;;;15.70;43.90;;;;;;5104559;27;45422;-68
2023/01/20 07:30:35;;;;;;;6.60;3.60;;;15.70;43.80;;;;;;5103464;27;45605;-68
2023/01/20 07:33:04;;;;;;;5.65;3.95;;;15.70;43.70;;;;;;5099919;27;45249;-68
2023/01/20 07:35:31;;;;;;;6.93;3.90;;;15.60;43.50;;;;;;5109311;27;46670;-68
2023/01/20 07:37:58;;;;;;;7.15;4.03;;;15.60;43.30;;;;;;5100797;27;45731;-68
2023/01/20 07:40:24;;;;;;;7.18;4.05;;;15.60;43.40;;;;;;5099473;27;45324;-69
2023/01/20 07:42:51;;;;;;;5.93;3.70;;;15.60;43.30;;;;;;5102450;27;45310;-69
2023/01/20 07:45:18;;;;;;;6.07;3.67;;;15.60;43.20;;;;;;5103041;27;46598;-68
2023/01/20 07:47:46;;;;;;;8.18;3.92;;;15.60;43.30;;;;;;5103977;27;45313;-68
2023/01/20 07:50:13;;;;;;;6.10;3.53;;;15.60;43.10;;;;;;5094947;27;45421;-68
2023/01/20 07:52:40;;;;;;;7.15;4.30;;;15.60;43.20;;;;;;5103568;27;45431;-68
2023/01/20 07:55:08;;;;;;;4.93;3.60;;;15.60;43.10;;;;;;5103010;27;45476;-68
2023/01/20 07:57:35;;;;;;;6.95;4.35;;;15.60;42.90;;;;;;5102917;27;45342;-68
2023/01/20 08:00:02;;;;;;;5.70;3.42;;;15.70;43.00;;;;;;5103442;27;45273;-68
2023/01/20 08:02:28;;;;;;;6.38;3.75;;;15.70;42.90;;;;;;5096997;27;45511;-68
2023/01/20 08:04:56;;;;;;;5.97;3.53;;;15.70;42.90;;;;;;5102994;27;46576;-68
2023/01/20 08:07:23;;;;;;;6.82;4.00;;;15.70;43.00;;;;;;5103267;27;45228;-68
2023/01/20 08:09:50;;;;;;;6.10;3.45;;;15.60;42.70;;;;;;5106913;27;45374;-68
2023/01/20 08:12:17;;;;;;;6.50;3.85;;;15.60;42.70;;;;;;5114070;27;45631;-68
2023/01/20 08:14:44;;;;;;;7.35;4.00;;;15.60;42.60;;;;;;5101013;27;45509;-68
2023/01/20 08:17:10;;;;;;;6.28;4.13;;;15.60;42.60;;;;;;5107275;27;46101;-67
2023/01/20 08:19:37;;;;;;;7.75;4.00;;;15.60;42.50;;;;;;5103687;27;45441;-68
2023/01/20 08:22:05;;;;;;;6.72;4.13;;;15.60;42.50;;;;;;5103740;27;45379;-69
2023/01/20 08:24:32;;;;;;;7.13;4.20;;;15.60;42.50;;;;;;5113417;27;45593;-68
2023/01/20 08:26:59;;;;;;;5.45;3.60;;;15.60;43.00;;;;;;5102684;27;45393;-69
2023/01/20 08:29:26;;;;;;;6.60;3.88;;;15.60;42.80;;;;;;5105749;27;45426;-68
2023/01/20 08:31:53;;;;;;;6.88;4.00;;;15.60;42.80;;;;;;5091060;27;45637;-69
2023/01/20 08:34:20;;;;;;;7.05;3.90;;;15.60;42.90;;;;;;5103358;27;47894;-68
2023/01/20 08:36:48;;;;;;;6.45;3.90;;;15.60;42.70;;;;;;5102300;27;45328;-69
2023/01/20 08:39:18;;;;;;;6.57;3.63;;;15.60;42.80;;;;;;5103442;27;45397;-68
2023/01/20 08:41:45;;;;;;;6.38;3.85;;;15.60;42.60;;;;;;5103609;27;45458;-68
2023/01/20 08:44:12;;;;;;;7.00;3.75;;;15.60;42.50;;;;;;5110546;27;48099;-69
2023/01/20 08:46:40;;;;;;;5.60;3.45;;;15.60;42.50;;;;;;5101873;27;45389;-68
2023/01/20 08:49:08;;;;;;;7.63;3.80;;;15.70;42.50;;;;;;5097867;27;45497;-68
2023/01/20 08:51:35;;;;;;;6.50;3.38;;;15.70;42.50;;;;;;5098370;27;45356;-69
2023/01/20 08:54:02;;;;;;;7.07;3.90;;;15.70;42.40;;;;;;5102493;27;47546;-68
2023/01/20 08:56:31;;;;;;;5.22;3.28;;;15.70;42.40;;;;;;5102192;27;45410;-68
2023/01/20 08:58:59;;;;;;;5.15;2.97;;;15.70;42.30;;;;;;5102675;27;45343;-68
2023/01/20 09:01:28;;;;;;;5.75;3.50;;;15.70;45.30;;;;;;5105452;27;45521;-68
2023/01/20 09:03:56;;;;;;;6.00;3.70;;;15.70;46.30;;;;;;5102027;27;46416;-68
2023/01/20 09:06:23;;;;;;;5.88;3.75;;;15.70;45.20;;;;;;5102945;27;45805;-68
2023/01/20 09:08:51;;;;;;;6.68;3.83;;;15.60;44.00;;;;;;5102015;27;45250;-68
2023/01/20 09:11:23;;;;;;;5.47;3.38;;;15.60;43.50;;;;;;5103420;27;45276;-68
2023/01/20 09:13:51;;;;;;;5.28;3.30;;;15.60;43.20;;;;;;5102498;27;47296;-68
2023/01/20 09:16:18;;;;;;;8.82;3.72;;;15.60;42.90;;;;;;5102250;27;45363;-69
2023/01/20 09:18:45;;;;;;;5.82;3.88;;;15.60;42.90;;;;;;5102214;27;45444;-68
2023/01/20 09:21:12;;;;;;;6.32;3.85;;;15.50;42.60;;;;;;5103279;27;45447;-68
2023/01/20 09:23:41;;;;;;;5.30;3.58;;;15.50;42.40;;;;;;5098356;27;45331;-69
2023/01/20 09:26:09;;;;;;;7.82;3.95;;;15.50;42.50;;;;;;5101903;27;45569;-68
2023/01/20 09:28:36;;;;;;;5.80;3.30;;;15.50;42.40;;;;;;5101799;27;45398;-68
2023/01/20 09:31:06;;;;;;;5.82;3.60;;;15.50;42.40;;;;;;5103952;27;45566;-69
2023/01/20 09:33:36;;;;;;;6.40;3.60;;;15.50;42.20;;;;;;5102289;27;45569;-68
2023/01/20 09:36:05;;;;;;;5.03;3.20;;;15.50;42.30;;;;;;5110912;27;45442;-68
2023/01/20 09:44:14;;;;;;;6.90;3.17;;;15.60;42.20;;;;;;5106202;27;45771;-68
2023/01/20 09:55:24;;;;;;;4.63;2.75;;;15.80;42.20;;;;;;5099152;27;45412;-68
2023/01/20 09:58:01;;;;;;;6.15;3.33;;;15.80;42.20;;;;;;5099737;27;45395;-69
2023/01/20 10:00:32;;;;;;;4.80;2.78;;;15.80;42.10;;;;;;5105717;27;45332;-67
2023/01/20 10:03:09;;;;;;;4.30;2.85;;;15.80;42.10;;;;;;5109174;27;45486;-68
2023/01/20 10:05:39;;;;;;;4.90;3.10;;;15.70;42.10;;;;;;5109966;27;46280;-68
2023/01/20 10:08:12;;;;;;;4.72;3.10;;;15.70;42.10;;;;;;5094507;27;45587;-68
2023/01/20 10:10:45;;;;;;;6.50;2.92;;;15.70;42.20;;;;;;5101160;27;45565;-69
2023/01/20 10:13:18;;;;;;;4.75;3.00;;;15.70;42.20;;;;;;5100025;27;45415;-69
2023/01/20 10:15:50;;;;;;;5.10;2.97;;;15.70;42.10;;;;;;5106060;27;47956;-68
2023/01/20 10:18:24;;;;;;;5.65;3.38;;;15.70;42.20;;;;;;5104423;27;45562;-69
2023/01/20 10:20:57;;;;;;;6.10;3.20;;;15.70;42.20;;;;;;5095852;27;45436;-68
2023/01/20 10:23:29;;;;;;;6.60;3.08;;;15.70;42.30;;;;;;5097036;27;45460;-68
2023/01/20 10:26:02;;;;;;;5.18;2.90;;;15.70;42.20;;;;;;5091893;27;45435;-68
2023/01/20 10:28:30;;;;;;;7.25;2.85;;;15.70;42.20;;;;;;5106290;27;45536;-69
2023/01/20 10:31:00;;;;;;;5.20;3.00;;;15.80;42.30;;;;;;5093082;27;45373;-68
2023/01/20 10:33:33;;;;;;;5.28;2.80;;;15.80;42.20;;;;;;5106345;27;45311;-68
2023/01/20 10:36:00;;;;;;;6.13;2.88;;;15.80;42.20;;;;;;5104408;27;46733;-68
2023/01/20 10:38:39;;;;;;;5.72;3.15;;;15.80;42.20;;;;;;5109819;27;45335;-69
2023/01/20 10:41:14;;;;;;;4.35;2.72;;;15.80;42.10;;;;;;5099461;27;45304;-68
2023/01/20 10:43:42;;;;;;;4.22;2.63;;;15.80;42.00;;;;;;5101891;27;45530;-68
2023/01/20 10:46:32;;;;;;;4.75;2.83;;;15.80;41.90;;;;;;5109682;27;45492;-68
2023/01/20 10:49:32;;;;;;;3.45;2.28;;;15.80;42.00;;;;;;5095888;27;45478;-68
2023/01/20 10:52:14;;;;;;;3.67;2.13;;;15.80;41.80;;;;;;5105270;27;45467;-67
2023/01/20 10:54:51;;;;;;;2.97;2.28;;;15.80;41.90;;;;;;5103496;27;45477;-68
2023/01/20 10:57:19;;;;;;;4.50;2.40;;;15.80;41.90;;;;;;5104461;27;46578;-67
2023/01/20 10:59:49;;;;;;;3.95;2.10;;;15.80;42.10;;;;;;5110796;27;45416;-68
2023/01/20 11:02:19;;;;;;;3.28;2.33;;;15.80;42.20;;;;;;5105481;27;45332;-68
2023/01/20 11:04:52;;;;;;;4.03;2.08;;;15.70;42.10;;;;;;5104640;27;45396;-68
2023/01/20 11:07:19;;;;;;;3.25;2.13;;;15.70;43.40;;;;;;5104782;27;45351;-68
2023/01/20 11:09:48;;;;;;;3.83;2.13;;;15.70;42.10;;;;;;5104291;27;45450;-68
2023/01/20 11:12:17;;;;;;;3.25;1.98;;;15.70;42.10;;;;;;5104771;27;45493;-68
2023/01/20 11:14:45;;;;;;;2.47;1.90;;;15.70;42.20;;;;;;5106145;27;45509;-68
2023/01/20 11:17:16;;;;;;;4.25;2.05;;;15.70;42.20;;;;;;5109361;27;45463;-69
2023/01/20 11:19:50;;;;;;;3.10;1.95;;;15.70;42.10;;;;;;5098324;27;45387;-68
2023/01/20 11:22:23;;;;;;;4.85;1.90;;;15.70;42.20;;;;;;5104694;27;45473;-68
2023/01/20 11:24:54;;;;;;;4.38;2.47;;;15.70;42.20;;;;;;5093957;27;45420;-68
2023/01/20 11:27:24;;;;;;;4.07;2.10;;;15.70;42.20;;;;;;5096402;27;48483;-68
2023/01/20 11:29:55;;;;;;;5.28;2.28;;;15.70;42.20;;;;;;5097307;27;45363;-68
2023/01/20 11:32:29;;;;;;;3.03;2.03;;;15.70;42.20;;;;;;5111049;27;45194;-68
2023/01/20 11:34:58;;;;;;;3.17;2.00;;;15.80;43.40;;;;;;5105310;27;45235;-68
2023/01/20 11:37:26;;;;;;;3.35;1.95;;;15.80;46.00;;;;;;5102886;27;45453;-69
2023/01/20 11:40:01;;;;;;;4.30;2.10;;;15.80;45.20;;;;;;5097694;27;45306;-68
2023/01/20 11:42:30;;;;;;;4.10;2.00;;;15.80;44.40;;;;;;5099821;27;45262;-68
2023/01/20 11:45:00;;;;;;;3.35;2.00;;;15.80;43.90;;;;;;5104224;27;45194;-68
2023/01/20 11:47:29;;;;;;;5.20;2.13;;;15.80;43.60;;;;;;5104036;27;45472;-69
2023/01/20 11:50:25;;;;;;;5.22;2.03;;;15.80;43.50;;;;;;5103670;27;45271;-68
2023/01/20 11:52:52;;;;;;;3.42;2.08;;;15.70;43.20;;;;;;5106103;27;45222;-69
2023/01/20 11:55:20;;;;;;;3.05;1.90;;;15.70;43.30;;;;;;5103006;27;45450;-69
2023/01/20 11:57:53;;;;;;;3.20;1.92;;;15.70;43.20;;;;;;5092714;27;45391;-68
2023/01/20 12:00:34;;;;;;;5.03;1.95;;;15.70;43.10;;;;;;5104195;27;45490;-68
2023/01/20 12:03:03;;;;;;;4.28;2.08;;;15.70;43.00;;;;;;5093841;27;45350;-68
2023/01/20 12:05:38;;;;;;;3.00;1.65;;;15.70;43.00;;;;;;5100620;27;45376;-68
2023/01/20 12:08:11;;;;;;;3.67;2.03;;;15.70;43.00;;;;;;5106579;27;46293;-68
2023/01/20 12:10:39;;;;;;;4.30;1.92;;;15.60;42.90;;;;;;5105522;27;45405;-69
2023/01/20 12:13:16;;;;;;;3.03;2.00;;;15.60;42.90;;;;;;5098764;27;45594;-68
2023/01/20 12:15:51;;;;;;;3.22;2.15;;;15.60;42.90;;;;;;5091893;27;45367;-68
2023/01/20 12:18:35;;;;;;;2.60;1.83;;;15.60;42.90;;;;;;5101023;27;47272;-68
2023/01/20 12:21:09;;;;;;;4.57;2.03;;;15.60;42.80;;;;;;5104690;27;45376;-68
2023/01/20 12:23:44;;;;;;;4.25;1.88;;;15.60;42.80;;;;;;5105733;27;45578;-68
2023/01/20 12:26:14;;;;;;;3.72;1.70;;;15.70;42.90;;;;;;5098344;27;45502;-68
2023/01/20 12:28:47;;;;;;;2.30;1.70;;;15.70;42.70;;;;;;5103531;27;46563;-69
2023/01/20 12:31:18;;;;;;;2.55;1.42;;;15.70;42.80;;;;;;5096612;27;45427;-68
2023/01/20 12:33:48;;;;;;;3.38;2.00;;;15.70;42.70;;;;;;5105781;27;45399;-68
2023/01/20 12:36:40;;;;;;;5.63;2.35;;;15.70;42.70;;;;;;5104499;27;45407;-68
2023/01/20 12:39:25;;;;;;;5.25;2.20;;;15.70;42.70;;;;;;5102986;27;48286;-68
2023/01/20 12:42:20;;;;;;;3.35;1.98;;;15.70;42.70;;;;;;5103099;27;45471;-68
2023/01/20 12:44:51;;;;;;;3.25;1.90;;;15.70;42.60;;;;;;5096896;27;45417;-68
2023/01/20 12:47:33;;;;;;;2.92;1.80;;;15.70;42.60;;;;;;5091947;27;45400;-68
2023/01/20 12:50:13;;;;;;;3.15;1.90;;;15.70;42.60;;;;;;5097776;27;45484;-68
2023/01/20 12:52:58;;;;;;;2.67;1.60;;;15.70;42.70;;;;;;5095269;27;45522;-68
2023/01/20 12:55:36;;;;;;;3.38;1.90;;;15.60;42.60;;;;;;5096382;27;45378;-68
2023/01/20 12:58:18;;;;;;;2.90;1.70;;;15.60;42.60;;;;;;5105612;27;45537;-70
2023/01/20 13:01:11;;;;;;;2.67;1.60;;;15.60;42.60;;;;;;5097633;27;46262;-70
2023/01/20 13:04:04;;;;;;;2.13;1.65;;;15.60;42.60;;;;;;5091490;27;45292;-68
2023/01/20 13:06:52;;;;;;;2.58;1.50;;;15.60;42.60;;;;;;5095931;27;45351;-67
2023/01/20 13:09:52;;;;;;;2.05;1.50;;;15.60;42.60;;;;;;5092258;27;45474;-67
2023/01/20 13:12:37;;;;;;;3.22;1.20;;;15.60;42.60;;;;;;5090222;27;48299;-68
2023/01/20 13:15:17;;;;;;;2.08;1.38;;;15.60;42.70;;;;;;5102696;27;45406;-68
2023/01/20 13:18:02;;;;;;;2.55;1.33;;;15.60;42.90;;;;;;5096672;27;45271;-68
2023/01/20 13:20:30;;;;;;;1.75;1.25;;;15.70;43.30;;;;;;5101897;27;45234;-68